createdAt,value
2018-12-06T00:00:09.097Z,27.77
2018-12-06T00:02:38.098Z,33.83
2018-12-06T00:05:07.113Z,31.90
2018-12-06T00:07:36.061Z,29.37
2018-12-06T00:10:05.513Z,30.10
2018-12-06T00:12:34.388Z,29.27
2018-12-06T00:15:25.800Z,36.60
2018-12-06T00:17:54.813Z,30.23
2018-12-06T00:20:23.840Z,30.60
2018-12-06T00:22:52.856Z,31.27
2018-12-06T00:25:21.872Z,32.53
2018-12-06T00:27:51.073Z,35.07
2018-12-06T00:30:34.424Z,27.55
2018-12-06T00:33:04.100Z,32.07
2018-12-06T00:35:32.980Z,25.27
2018-12-06T00:38:01.933Z,32.80
2018-12-06T00:40:30.900Z,27.50
2018-12-06T00:42:59.832Z,25.30
2018-12-06T00:45:28.760Z,28.98
2018-12-06T00:47:57.692Z,32.57
2018-12-06T00:50:26.692Z,33.37
2018-12-06T00:52:55.884Z,28.23
2018-12-06T00:55:24.752Z,31.02
2018-12-06T00:57:53.689Z,30.33
2018-12-06T01:00:23.432Z,32.70
2018-12-06T01:02:52.399Z,34.40
2018-12-06T01:05:23.296Z,25.90
2018-12-06T01:07:52.293Z,31.13
2018-12-06T01:10:21.207Z,35.87
2018-12-06T01:12:50.127Z,27.47
2018-12-06T01:15:19.267Z,34.33
2018-12-06T01:17:48.559Z,31.13
2018-12-06T01:20:17.675Z,33.87
2018-12-06T01:22:46.659Z,32.33
2018-12-06T01:25:15.613Z,33.00
2018-12-06T01:27:44.651Z,28.60
2018-12-06T01:30:13.587Z,35.23
2018-12-06T01:32:42.855Z,33.77
2018-12-06T01:35:11.779Z,28.07
2018-12-06T01:37:40.643Z,32.73
2018-12-06T01:40:10.019Z,33.20
2018-12-06T01:42:38.991Z,31.20
2018-12-06T01:45:08.023Z,38.17
2018-12-06T01:47:37.007Z,34.33
2018-12-06T01:50:06.694Z,34.50
2018-12-06T01:52:35.746Z,39.53
2018-12-06T01:55:05.351Z,38.33
2018-12-06T01:57:34.234Z,34.17
2018-12-06T02:00:03.196Z,39.27
2018-12-06T02:02:32.458Z,37.77
2018-12-06T02:05:01.494Z,31.77
2018-12-06T02:07:30.554Z,30.27
2018-12-06T02:10:03.946Z,34.80
2018-12-06T02:12:33.126Z,36.60
2018-12-06T02:15:02.112Z,41.77
2018-12-06T02:17:31.078Z,35.37
2018-12-06T02:20:00.067Z,36.47
2018-12-06T02:22:29.118Z,38.13
2018-12-06T02:24:58.102Z,34.80
2018-12-06T02:27:27.050Z,35.70
2018-12-06T02:29:56.010Z,34.37
2018-12-06T02:32:26.001Z,41.57
2018-12-06T02:34:55.071Z,32.77
2018-12-06T02:37:23.998Z,38.40
2018-12-06T02:39:52.993Z,42.20
2018-12-06T02:42:22.146Z,37.57
2018-12-06T02:44:51.130Z,39.73
2018-12-06T02:47:20.054Z,36.93
2018-12-06T02:49:49.070Z,40.30
2018-12-06T02:52:18.530Z,33.67
2018-12-06T02:54:47.817Z,33.67
2018-12-06T02:57:16.785Z,36.80
2018-12-06T02:59:46.050Z,40.17
2018-12-06T03:02:14.954Z,37.40
2018-12-06T03:04:43.949Z,37.70
2018-12-06T03:07:13.082Z,36.47
2018-12-06T03:09:42.077Z,42.40
2018-12-06T03:12:11.082Z,54.90
2018-12-06T03:14:40.086Z,38.17
2018-12-06T03:17:09.133Z,46.53
2018-12-06T03:19:38.109Z,47.47
2018-12-06T03:22:07.108Z,48.20
2018-12-06T03:24:36.397Z,53.43
2018-12-06T03:27:05.327Z,50.97
2018-12-06T03:29:34.314Z,43.00
2018-12-06T03:32:03.306Z,49.77
2018-12-06T03:34:32.372Z,47.17
2018-12-06T03:37:01.423Z,44.47
2018-12-06T03:39:30.338Z,45.87
2018-12-06T03:41:59.847Z,47.17
2018-12-06T03:44:28.850Z,50.57
2018-12-06T03:46:57.878Z,52.03
2018-12-06T03:49:26.891Z,54.57
2018-12-06T03:51:55.934Z,50.73
2018-12-06T03:54:25.262Z,53.33
2018-12-06T03:56:54.310Z,66.83
2018-12-06T03:59:23.563Z,60.67
2018-12-06T04:01:52.585Z,66.87
2018-12-06T04:04:21.653Z,62.03
2018-12-06T04:06:50.862Z,62.13
2018-12-06T04:09:19.842Z,69.95
2018-12-06T04:11:49.242Z,65.93
2018-12-06T04:14:18.150Z,104.37
2018-12-06T04:16:47.150Z,58.23
2018-12-06T04:19:16.138Z,75.97
2018-12-06T04:21:45.042Z,84.83
2018-12-06T04:24:14.047Z,71.57
2018-12-06T04:26:42.964Z,65.30
2018-12-06T04:29:11.908Z,91.80
2018-12-06T04:31:40.938Z,80.73
2018-12-06T04:34:09.915Z,87.67
2018-12-06T04:36:38.943Z,67.03
2018-12-06T04:39:08.862Z,112.40
2018-12-06T04:41:37.799Z,80.57
2018-12-06T04:44:06.778Z,84.27
2018-12-06T04:46:36.187Z,94.10
2018-12-06T04:49:05.375Z,74.57
2018-12-06T04:51:34.441Z,95.63
2018-12-06T04:54:03.338Z,66.80
2018-12-06T04:56:32.301Z,93.73
2018-12-06T04:59:01.245Z,70.63
2018-12-06T05:01:30.348Z,74.97
2018-12-06T05:03:59.440Z,85.87
2018-12-06T05:06:28.436Z,83.30
2018-12-06T05:08:57.400Z,79.33
2018-12-06T05:11:34.068Z,142.57
2018-12-06T05:14:07.520Z,89.97
2018-12-06T05:16:42.533Z,103.53
2018-12-06T05:19:11.607Z,61.10
2018-12-06T05:21:43.027Z,65.30
2018-12-06T05:42:18.027Z,47.10
2018-12-06T06:04:47.954Z,59.93
2018-12-06T06:07:36.937Z,75.03
2018-12-06T06:10:23.851Z,80.83
2018-12-06T08:14:05.257Z,35.50
2018-12-06T08:16:44.231Z,43.37
2018-12-06T08:19:13.979Z,48.90
2018-12-06T08:21:42.077Z,57.10
2018-12-06T08:24:11.201Z,55.53
2018-12-06T08:26:40.109Z,50.03
2018-12-06T08:29:09.005Z,48.57
2018-12-06T08:31:38.229Z,44.87
2018-12-06T08:34:07.114Z,46.20
2018-12-06T08:36:35.981Z,34.13
2018-12-06T08:39:06.125Z,34.87
2018-12-06T08:41:35.039Z,42.77
2018-12-06T08:44:04.121Z,44.27
2018-12-06T08:46:33.016Z,41.43
2018-12-06T08:49:03.106Z,41.17
2018-12-06T08:51:30.853Z,42.33
2018-12-06T08:54:00.200Z,42.37
2018-12-06T08:56:29.205Z,41.50
2018-12-06T08:58:58.177Z,39.60
2018-12-06T09:01:27.149Z,39.90
2018-12-06T09:03:56.073Z,41.73
2018-12-06T09:06:25.069Z,48.77
2018-12-06T09:08:54.461Z,41.93
2018-12-06T09:11:23.565Z,44.10
2018-12-06T09:13:52.605Z,44.30
2018-12-06T09:16:21.601Z,44.13
2018-12-06T09:18:50.992Z,42.23
2018-12-06T09:21:20.418Z,37.50
2018-12-06T09:23:49.381Z,42.27
2018-12-06T09:26:18.405Z,42.87
2018-12-06T09:28:47.443Z,40.83
2018-12-06T09:31:16.473Z,41.90
2018-12-06T09:33:56.520Z,44.67
2018-12-06T09:36:25.892Z,40.73
2018-12-06T09:38:54.912Z,39.33
2018-12-06T09:41:23.972Z,44.20
2018-12-06T09:43:53.148Z,39.37
2018-12-06T09:46:22.192Z,36.80
2018-12-06T09:48:51.592Z,40.03
2018-12-06T09:51:21.438Z,36.00
2018-12-06T09:53:50.504Z,37.83
2018-12-06T09:56:19.568Z,42.37
2018-12-06T09:58:48.648Z,34.70
2018-12-06T10:01:18.059Z,34.67
2018-12-06T10:03:47.380Z,46.90
2018-12-06T10:06:16.393Z,37.40
2018-12-06T10:08:45.429Z,37.97
2018-12-06T10:11:14.404Z,45.55
2018-12-06T10:13:43.445Z,44.73
2018-12-06T10:16:12.456Z,46.90
2018-12-06T10:18:41.705Z,47.37
2018-12-06T10:21:10.769Z,45.33
2018-12-06T10:23:39.762Z,41.53
2018-12-06T10:26:08.924Z,38.30
2018-12-06T10:28:37.908Z,36.57
2018-12-06T10:31:07.041Z,40.23
2018-12-06T10:33:36.072Z,40.73
2018-12-06T10:36:05.260Z,37.75
2018-12-06T10:38:34.311Z,46.33
2018-12-06T10:41:03.467Z,38.70
2018-12-06T10:43:32.804Z,35.30
2018-12-06T10:46:01.917Z,41.70
2018-12-06T10:48:30.928Z,39.57
2018-12-06T10:51:10.908Z,43.30
2018-12-06T10:53:40.266Z,47.37
2018-12-06T10:56:09.312Z,41.57
2018-12-06T10:58:38.361Z,41.93
2018-12-06T11:01:09.569Z,40.37
2018-12-06T11:03:44.269Z,48.43
2018-12-06T11:06:13.389Z,44.37
2018-12-06T11:08:43.092Z,42.13
2018-12-06T11:11:12.122Z,47.30
2018-12-06T11:13:41.197Z,44.17
2018-12-06T11:16:10.258Z,38.73
2018-12-06T11:18:39.896Z,41.50
2018-12-06T11:21:10.068Z,41.13
2018-12-06T11:23:39.493Z,42.63
2018-12-06T11:26:08.502Z,43.73
2018-12-06T11:28:37.520Z,40.97
2018-12-06T11:31:06.593Z,41.03
2018-12-06T11:33:35.882Z,46.77
2018-12-06T11:36:05.429Z,45.63
2018-12-06T11:38:34.468Z,42.63
2018-12-06T11:41:03.440Z,53.83
2018-12-06T11:43:32.440Z,43.87
2018-12-06T11:46:01.448Z,47.23
2018-12-06T11:48:30.440Z,40.73
2018-12-06T11:50:59.741Z,45.07
2018-12-06T11:53:29.508Z,44.57
2018-12-06T11:55:58.892Z,47.53
2018-12-06T11:58:27.868Z,43.00
2018-12-06T12:00:56.812Z,44.80
2018-12-06T12:03:26.225Z,52.53
2018-12-06T12:05:58.615Z,55.70
2018-12-06T12:08:24.180Z,46.63
2018-12-06T12:10:53.169Z,51.87
2018-12-06T12:13:22.168Z,53.10
2018-12-06T12:15:51.152Z,55.17
2018-12-06T12:18:20.157Z,47.77
2018-12-06T12:20:49.149Z,46.73
2018-12-06T12:23:18.148Z,57.00
2018-12-06T12:25:47.952Z,49.57
2018-12-06T12:28:16.141Z,46.37
2018-12-06T12:30:45.097Z,46.57
2018-12-06T12:33:14.012Z,51.07
2018-12-06T12:35:43.452Z,47.93
2018-12-06T12:38:12.462Z,42.93
2018-12-06T12:40:41.425Z,50.33
2018-12-06T12:43:10.400Z,49.77
2018-12-06T12:45:39.560Z,47.10
2018-12-06T12:48:08.512Z,44.70
2018-12-06T12:50:37.500Z,51.27
2018-12-06T12:53:06.500Z,47.23
2018-12-06T12:55:35.728Z,51.43
2018-12-06T12:58:05.444Z,49.03
2018-12-06T13:00:34.434Z,47.23
2018-12-06T13:03:03.388Z,45.83
2018-12-06T13:05:32.368Z,44.07
2018-12-06T13:08:01.366Z,49.00
2018-12-06T13:10:30.353Z,42.87
2018-12-06T13:12:59.824Z,45.03
2018-12-06T13:15:28.836Z,42.23
2018-12-06T13:17:58.160Z,40.13
2018-12-06T13:20:27.132Z,44.27
2018-12-06T13:22:56.445Z,39.67
2018-12-06T13:25:25.431Z,36.07
2018-12-06T13:27:54.473Z,50.33
2018-12-06T13:30:23.779Z,42.88
2018-12-06T13:32:52.791Z,44.50
2018-12-06T13:35:21.767Z,41.50
2018-12-06T13:37:51.215Z,46.43
2018-12-06T13:40:20.179Z,38.23
2018-12-06T13:42:49.154Z,38.93
2018-12-06T13:45:18.227Z,42.30
2018-12-06T13:47:47.203Z,39.73
2018-12-06T13:50:16.167Z,38.93
2018-12-06T13:52:45.124Z,40.23
2018-12-06T13:55:14.323Z,40.20
2018-12-06T13:57:43.271Z,40.57
2018-12-06T14:00:12.279Z,44.40
2018-12-06T14:02:42.891Z,40.83
2018-12-06T14:05:11.907Z,37.83
2018-12-06T14:07:41.272Z,39.13
2018-12-06T14:10:11.440Z,40.33
2018-12-06T14:12:40.375Z,40.93
2018-12-06T14:15:30.327Z,41.07
2018-12-06T14:18:20.143Z,39.80
2018-12-06T14:21:01.295Z,46.07
2018-12-06T14:23:30.208Z,43.67
2018-12-06T14:25:59.851Z,46.27
2018-12-06T14:28:29.542Z,36.53
2018-12-06T14:30:58.803Z,37.47
2018-12-06T14:33:29.576Z,36.37
2018-12-06T14:35:59.504Z,37.27
2018-12-06T14:38:28.516Z,40.67
2018-12-06T14:44:29.703Z,44.90
2018-12-06T14:47:03.876Z,38.47
2018-12-06T14:49:32.923Z,48.50
2018-12-06T15:05:53.627Z,43.07
2018-12-06T15:08:22.964Z,43.40
2018-12-06T15:51:29.217Z,35.67
2018-12-06T15:54:04.998Z,33.70
2018-12-06T15:56:35.054Z,41.27
2018-12-06T16:26:59.014Z,37.00
2018-12-06T16:29:51.489Z,33.83
2018-12-06T16:35:12.515Z,32.30
2018-12-06T16:37:41.465Z,32.73
2018-12-06T16:46:35.663Z,32.87
2018-12-06T16:49:12.611Z,38.04
2018-12-06T16:51:41.676Z,38.50
2018-12-06T16:54:10.530Z,41.10
2018-12-06T16:56:39.551Z,39.80
2018-12-06T16:59:10.037Z,34.60
2018-12-06T17:01:38.744Z,36.77
2018-12-06T17:04:08.112Z,38.20
2018-12-06T17:06:42.251Z,45.37
2018-12-06T17:09:11.800Z,35.17
2018-12-06T17:11:41.011Z,43.90
2018-12-06T17:14:10.143Z,41.10
2018-12-06T17:16:40.470Z,44.87
2018-12-06T17:19:09.527Z,38.80
2018-12-06T17:21:42.598Z,42.93
2018-12-06T17:24:11.606Z,42.73
2018-12-06T17:26:40.530Z,41.33
2018-12-06T17:29:09.802Z,40.10
2018-12-06T17:31:38.802Z,35.80
2018-12-06T17:34:07.822Z,41.83
2018-12-06T17:36:36.354Z,36.97
2018-12-06T17:39:07.990Z,45.80
2018-12-06T17:41:36.830Z,40.00
2018-12-06T17:44:05.718Z,39.20
2018-12-06T17:46:34.330Z,45.13
2018-12-06T17:49:03.114Z,42.10
2018-12-06T17:51:32.095Z,43.63
2018-12-06T17:54:01.080Z,42.30
2018-12-06T17:56:30.261Z,42.50
2018-12-06T17:58:58.806Z,45.13
2018-12-06T18:01:28.400Z,42.67
2018-12-06T18:03:56.374Z,41.83
2018-12-06T18:06:25.146Z,37.83
2018-12-06T18:08:53.618Z,37.07
2018-12-06T18:11:22.124Z,38.20
2018-12-06T18:13:50.686Z,36.67
2018-12-06T18:16:19.721Z,42.37
2018-12-06T18:18:48.028Z,41.63
2018-12-06T18:21:16.538Z,40.97
2018-12-06T18:23:44.994Z,44.10
2018-12-06T18:26:13.650Z,36.50
2018-12-06T18:28:42.146Z,41.53
2018-12-06T18:31:10.743Z,42.13
2018-12-06T18:33:39.413Z,43.33
2018-12-06T18:36:07.868Z,42.77
2018-12-06T18:38:36.460Z,45.57
2018-12-06T18:41:05.049Z,45.70
2018-12-06T18:43:33.520Z,39.70
2018-12-06T18:46:04.184Z,45.80
2018-12-06T18:48:32.724Z,37.97
2018-12-06T18:51:01.192Z,38.40
2018-12-06T18:53:29.712Z,39.67
2018-12-06T18:55:58.228Z,46.53
2018-12-06T18:58:34.144Z,38.87
2018-12-06T19:00:55.183Z,44.23
2018-12-06T19:03:23.700Z,42.87
2018-12-06T19:05:52.202Z,48.47
2018-12-06T19:08:20.760Z,45.07
2018-12-06T19:10:49.247Z,50.80
2018-12-06T19:13:17.696Z,49.97
2018-12-06T19:15:46.268Z,43.97
2018-12-06T19:18:14.696Z,43.73
2018-12-06T19:20:43.280Z,48.70
2018-12-06T19:23:11.740Z,50.90
2018-12-06T19:25:40.184Z,49.30
2018-12-06T19:28:08.655Z,47.90
2018-12-06T19:30:37.305Z,50.47
2018-12-06T19:33:05.919Z,51.43
2018-12-06T19:35:34.660Z,51.47
2018-12-06T19:38:03.201Z,51.73
2018-12-06T19:40:31.699Z,52.23
2018-12-06T19:43:01.215Z,49.17
2018-12-06T19:45:29.695Z,49.80
2018-12-06T19:47:58.272Z,55.30
2018-12-06T19:50:27.017Z,50.93
2018-12-06T19:52:56.120Z,57.73
2018-12-06T19:55:25.428Z,55.43
2018-12-06T19:57:54.016Z,55.63
2018-12-06T20:00:22.556Z,51.75
2018-12-06T20:02:51.100Z,53.10
2018-12-06T20:05:19.591Z,57.35
2018-12-06T20:07:48.396Z,53.37
2018-12-06T20:10:16.900Z,58.13
2018-12-06T20:12:45.632Z,60.87
2018-12-06T20:15:14.480Z,46.50
2018-12-06T20:17:43.333Z,60.90
2018-12-06T20:20:12.164Z,53.63
2018-12-06T20:22:40.787Z,48.03
2018-12-06T20:25:09.238Z,62.93
2018-12-06T20:27:37.747Z,55.00
2018-12-06T20:30:06.623Z,56.73
2018-12-06T20:32:35.545Z,52.27
2018-12-06T20:35:04.909Z,54.13
2018-12-06T20:37:33.418Z,53.87
2018-12-06T20:40:02.154Z,63.20
2018-12-06T20:42:30.590Z,56.87
2018-12-06T20:44:59.123Z,53.57
2018-12-06T20:47:27.706Z,49.43
2018-12-06T20:49:56.177Z,58.60
2018-12-06T20:52:24.611Z,64.00
2018-12-06T20:54:53.398Z,55.40
2018-12-06T20:57:21.850Z,55.40
2018-12-06T20:59:50.425Z,61.23
2018-12-06T21:02:19.734Z,59.33
2018-12-06T21:04:48.174Z,58.17
2018-12-06T21:07:16.642Z,61.43
2018-12-06T21:09:45.510Z,62.00
2018-12-06T21:12:13.926Z,52.60
2018-12-06T21:14:42.374Z,60.57
2018-12-06T21:17:11.379Z,62.87
2018-12-06T21:19:39.882Z,62.60
2018-12-06T21:22:08.346Z,65.27
2018-12-06T21:24:36.798Z,60.53
2018-12-06T21:27:05.387Z,58.53
2018-12-06T21:29:33.823Z,61.00
2018-12-06T21:32:02.374Z,64.10
2018-12-06T21:34:31.199Z,61.30
2018-12-06T21:36:59.743Z,58.17
2018-12-06T21:39:28.167Z,58.93
2018-12-06T21:41:56.719Z,62.50
2018-12-06T21:44:25.203Z,65.63
2018-12-06T21:46:53.751Z,61.50
2018-12-06T21:49:22.320Z,56.77
2018-12-06T21:51:50.827Z,61.33
2018-12-06T21:54:19.283Z,64.80
2018-12-06T21:56:47.748Z,61.57
2018-12-06T21:59:16.247Z,65.10
2018-12-06T22:01:44.735Z,63.83
2018-12-06T22:04:13.208Z,61.83
2018-12-06T22:06:41.780Z,57.47
2018-12-06T22:09:10.572Z,61.40
2018-12-06T22:11:39.380Z,64.63
2018-12-06T22:14:08.224Z,66.90
2018-12-06T22:16:36.964Z,61.60
2018-12-06T22:19:05.425Z,64.30
2018-12-06T22:21:33.892Z,66.83
2018-12-06T22:24:02.647Z,59.57
2018-12-06T22:26:31.231Z,56.97
2018-12-06T22:28:59.732Z,62.20
2018-12-06T22:31:28.200Z,60.83
2018-12-06T22:33:56.668Z,65.00
2018-12-06T22:36:25.303Z,61.97
2018-12-06T22:38:53.792Z,72.50
2018-12-06T22:41:22.517Z,64.80
2018-12-06T22:43:51.292Z,66.70
2018-12-06T22:46:19.748Z,58.67
2018-12-06T22:48:48.187Z,64.63
2018-12-06T22:51:24.172Z,67.37
2018-12-06T22:53:45.354Z,73.07
2018-12-06T22:56:13.827Z,58.73
2018-12-06T22:58:42.417Z,60.13
2018-12-06T23:01:11.066Z,63.93
2018-12-06T23:03:39.834Z,65.83
2018-12-06T23:06:08.473Z,65.87
2018-12-06T23:08:36.926Z,74.40
2018-12-06T23:11:05.532Z,66.37
2018-12-06T23:13:33.993Z,74.37
2018-12-06T23:16:02.701Z,63.03
2018-12-06T23:18:31.617Z,68.43
2018-12-06T23:21:00.397Z,63.07
2018-12-06T23:23:28.934Z,75.03
2018-12-06T23:25:57.410Z,67.13
2018-12-06T23:28:26.617Z,66.30
2018-12-06T23:30:55.117Z,67.67
2018-12-06T23:33:23.593Z,70.23
2018-12-06T23:35:52.044Z,67.07
2018-12-06T23:38:20.528Z,64.07
2018-12-06T23:40:49.001Z,68.87
2018-12-06T23:43:17.604Z,65.00
2018-12-06T23:45:46.203Z,76.97
2018-12-06T23:48:14.920Z,63.00
2018-12-06T23:50:43.813Z,69.33
2018-12-06T23:53:12.241Z,60.33
2018-12-06T23:56:11.417Z,64.97
2018-12-06T23:58:40.128Z,69.37
